메인 페이지
METAR-TAF:

METAR-TAF

공항 :

이칼루이트, 누나부트, 캐나다

위도: 63-45N, 경도: 068-33W, 고도: 34m

현재 날씨관측

예보는 22분 전, 07:00시(UTC)에 발표되었습니다.
북서3kt
온도 -15°C
습도 85%
기압 1008 hPa
시정: 6.4km
약한눈

METAR: CYFB 210700Z 32003KT 4SM -SN VV024 M15/M17 A2978 RMK SN8 SLP092

시각: 03:22 (07:22 UTC)

예보

예보는 1 시간 43분 전, 05:39시(UTC)에 발표되었습니다.
예보 대상 시간: 21일 06시부터 22일 06시까지 (UTC)
여러 방향의 바람 3kt
시정: 10km
고도 6000ft 상공 흐림
약한눈
일시적
21일 06시부터 21일 19시까지 (UTC)
고도 4000ft 상공 흐림
약한눈
전환 중
21일 12시부터 21일 14시까지 (UTC)
14kt
21일 1900시부터 (UTC)
15kt
시정: 10km
고도 5000ft 상공 구름 보통
고도 10000ft 상공 구름 많음
약한눈
일시적
21일 19시부터 21일 22시까지 (UTC)
시정: 8.0km
고도 5000ft 상공 구름 많음
고도 10000ft 상공 흐림
약한눈
21일 2200시부터 (UTC)
북북서22kt
고도 3000ft 상공 구름 조금
날린눈
22일 0300시부터 (UTC)
북북서25kt
시정: 8.0km
맑음
날린눈

TAF: CYFB 210539Z 2106/2206 VRB03KT P6SM -SN OVC060 TEMPO 2106/2119 21/2SM -SN OVC040 BECMG 2112/2114 35014KT FM211900 36015KT P6SM -SN SCT050 BKN100 TEMPO 2119/2122 5SM -SN BKN050 OVC100 FM212200 34022KT 21/2SM BLSN FEW030 FM220300 33025KT 5SM BLSN SKC RMK NXT FCST BY 211200Z

4,000개 이상의 공항 관측 자료 및 예보 (METAR 및 TAF 보고).

지도상에서 검색 가능한 기상관측소가 노란 점과 빨간 점으로 표시되어 있습니다.

기상관측소 명을 보려면 표시 위로 마우스를 이동하세요.

날씨 관측과 예보를 보려면 클릭하세요.

지도 변경 : 확대하려면 엑스 표시가 있는 녹색 버튼, 축소하려면 빼기 표시가 있는 녹색 버튼, 다음 페이지의 지도를 보려면 녹색 화살표를 클릭하세요.


METAR-TAF: